Time;durP1;ratioP1;P1;durP2;ratioP2;P2;SDS_P1;SDS_P2;PMS_P1;PMS_P2;Temp;Humidity;BMP_temperature;BMP_pressure;BME280_temperature;BME280_humidity;BME280_pressure;Samples;Min_cycle;Max_cycle;Signal;HPM_P1;HPM_P2
2022/10/18 00:02:00;;;;;;;34.53;14.15;;;;;;;12.69;100.00;100004.34;5113274;28;20088;-91
2022/10/18 00:04:25;;;;;;;36.42;15.30;;;;;;;12.63;100.00;99993.78;5112244;28;20763;-90
2022/10/18 00:06:51;;;;;;;42.25;17.60;;;;;;;12.77;100.00;99978.41;5110871;28;20043;-91
2022/10/18 00:09:17;;;;;;;36.45;16.05;;;;;;;13.04;100.00;99992.19;5111729;28;20069;-90
2022/10/18 00:11:42;;;;;;;42.47;16.63;;;;;;;13.17;100.00;100001.75;5111904;27;20047;-91
2022/10/18 00:14:08;;;;;;;37.28;16.60;;;;;;;13.12;100.00;99995.63;5112368;27;20051;-91
2022/10/18 00:16:34;;;;;;;32.75;15.77;;;;;;;13.05;100.00;99993.94;5112814;27;20664;-91
2022/10/18 00:19:01;;;;;;;37.88;17.23;;;;;;;13.08;100.00;99977.91;5112060;28;20042;-89
2022/10/18 00:21:27;;;;;;;39.72;15.25;;;;;;;13.09;100.00;99966.28;5112725;28;20050;-91
2022/10/18 00:23:53;;;;;;;35.58;15.65;;;;;;;13.10;100.00;99981.41;5112192;28;20039;-90
2022/10/18 00:26:22;;;;;;;36.45;15.57;;;;;;;12.97;100.00;99979.84;5111672;28;20039;-90
2022/10/18 00:28:50;;;;;;;30.85;14.13;;;;;;;12.87;100.00;99982.69;5111019;28;20043;-91
2022/10/18 00:31:21;;;;;;;29.27;13.07;;;;;;;12.97;100.00;99977.19;5111599;28;20044;-91
2022/10/18 00:33:49;;;;;;;32.90;14.93;;;;;;;12.88;100.00;99981.78;5112556;28;20100;-90
2022/10/18 00:36:17;;;;;;;34.85;15.95;;;;;;;13.11;100.00;99996.53;5112381;28;20043;-91
2022/10/18 00:38:44;;;;;;;40.72;17.35;;;;;;;13.06;100.00;99974.38;5112231;28;20043;-90
2022/10/18 00:41:12;;;;;;;37.25;16.75;;;;;;;13.07;100.00;99981.44;5112605;28;20040;-92
2022/10/18 00:43:57;;;;;;;44.00;17.90;;;;;;;13.09;100.00;99996.53;5112343;28;20135;-92
2022/10/18 00:46:24;;;;;;;34.22;15.02;;;;;;;13.08;100.00;99997.47;5111657;28;20035;-90
2022/10/18 00:48:51;;;;;;;33.75;15.88;;;;;;;13.09;100.00;99993.88;5111742;28;20046;-91
2022/10/18 00:51:21;;;;;;;35.00;16.42;;;;;;;13.06;100.00;100001.94;5111914;28;20124;-92
2022/10/18 00:53:47;;;;;;;41.50;17.63;;;;;;;12.91;100.00;99975.50;5112163;28;20039;-92
2022/10/18 00:56:13;;;;;;;40.00;16.95;;;;;;;12.91;100.00;99980.84;5111849;28;20169;-89
2022/10/18 00:58:40;;;;;;;37.35;17.23;;;;;;;12.79;100.00;99984.59;5111205;28;20536;-90
2022/10/18 01:01:06;;;;;;;37.05;15.60;;;;;;;12.84;100.00;99992.56;5111879;28;20051;-91
2022/10/18 01:03:32;;;;;;;33.60;15.65;;;;;;;12.83;100.00;99991.66;5112056;28;20047;-92
2022/10/18 01:05:58;;;;;;;39.22;17.13;;;;;;;12.78;100.00;99976.63;5113649;28;20042;-91
2022/10/18 01:08:45;;;;;;;41.53;16.50;;;;;;;12.81;100.00;99981.91;5112159;28;20044;-90
2022/10/18 01:11:42;;;;;;;41.38;18.20;;;;;;;12.76;100.00;99967.75;5112173;28;20130;-91
2022/10/18 01:14:17;;;;;;;37.33;16.83;;;;;;;12.85;100.00;99979.16;5093803;28;20100;-92
2022/10/18 01:16:48;;;;;;;42.92;18.52;;;;;;;12.78;100.00;99965.97;5108457;28;20042;-91
2022/10/18 01:19:52;;;;;;;43.38;17.33;;;;;;;12.68;100.00;99957.19;5111016;28;20032;-91
2022/10/18 01:22:23;;;;;;;44.85;18.17;;;;;;;12.64;100.00;99952.81;5113855;28;20118;-91
2022/10/18 01:25:05;;;;;;;37.40;16.48;;;;;;;12.70;100.00;99972.28;5115606;28;20516;-91
2022/10/18 01:27:53;;;;;;;37.42;17.58;;;;;;;12.76;100.00;99970.44;5113111;28;20035;-90
2022/10/18 01:30:38;;;;;;;42.75;18.20;;;;;;;12.72;100.00;99954.44;5114844;28;20043;-91
2022/10/18 01:33:12;;;;;;;38.92;17.90;;;;;;;12.67;100.00;99961.66;5115061;28;20132;-91
2022/10/18 01:35:43;;;;;;;34.38;16.42;;;;;;;12.66;100.00;99969.69;5115546;28;20043;-90
2022/10/18 01:38:16;;;;;;;38.65;15.77;;;;;;;12.63;100.00;99969.75;5115477;28;20447;-90
2022/10/18 01:40:45;;;;;;;34.67;15.27;;;;;;;12.43;100.00;99946.94;5114179;28;20096;-91
2022/10/18 01:43:12;;;;;;;32.15;15.02;;;;;;;12.45;100.00;99965.59;5113550;28;20527;-91
2022/10/18 01:45:40;;;;;;;32.65;15.52;;;;;;;12.29;100.00;99952.47;5113987;28;20059;-92
2022/10/18 01:48:07;;;;;;;32.38;15.73;;;;;;;12.16;100.00;99936.69;5114354;28;20039;-89
2022/10/18 01:50:34;;;;;;;32.75;13.73;;;;;;;12.18;100.00;99948.22;5109671;27;20105;-89
2022/10/18 01:53:00;;;;;;;37.90;16.25;;;;;;;12.25;100.00;99953.44;5114831;28;20040;-91
2022/10/18 01:55:37;;;;;;;36.17;15.27;;;;;;;12.19;100.00;99947.28;5114755;28;20036;-91
2022/10/18 01:58:08;;;;;;;37.00;16.48;;;;;;;12.15;100.00;99924.28;5113052;28;20109;-91
2022/10/18 02:00:40;;;;;;;40.35;16.80;;;;;;;12.32;100.00;99948.91;5113408;28;20728;-89
2022/10/18 02:03:15;;;;;;;36.53;15.52;;;;;;;12.21;100.00;99935.72;5113722;28;20044;-90
2022/10/18 02:05:47;;;;;;;36.65;15.95;;;;;;;12.18;100.00;99940.22;5114348;28;20232;-91
2022/10/18 02:08:24;;;;;;;31.73;15.23;;;;;;;12.23;100.00;99943.69;5112870;28;20085;-88
2022/10/18 02:10:54;;;;;;;35.58;14.77;;;;;;;12.24;100.00;99959.66;5113909;28;20130;-91
2022/10/18 02:13:22;;;;;;;33.05;14.85;;;;;;;12.20;100.00;99957.06;5113996;28;20092;-90
2022/10/18 02:15:54;;;;;;;28.83;14.38;;;;;;;12.15;100.00;99957.16;5112318;28;20039;-90
2022/10/18 02:18:24;;;;;;;33.00;14.30;;;;;;;12.04;100.00;99938.63;5112094;28;20042;-91
2022/10/18 02:20:51;;;;;;;34.10;16.15;;;;;;;11.96;100.00;99940.53;5112449;28;20138;-90
2022/10/18 02:23:20;;;;;;;31.60;15.07;;;;;;;11.98;100.00;99937.84;5113746;28;20031;-92
2022/10/18 02:25:46;;;;;;;29.77;14.60;;;;;;;11.99;100.00;99945.81;5113543;28;20757;-90
2022/10/18 02:28:12;;;;;;;46.53;14.85;;;;;;;12.02;100.00;99943.09;5114276;28;20039;-90
2022/10/18 02:30:46;;;;;;;33.33;15.15;;;;;;;11.88;100.00;99927.31;5114808;27;20066;-91
2022/10/18 02:33:20;;;;;;;34.90;15.27;;;;;;;11.94;100.00;99931.66;5113598;28;20046;-92
2022/10/18 02:35:51;;;;;;;34.13;14.93;;;;;;;11.85;100.00;99926.44;5114211;28;20051;-92
2022/10/18 02:38:18;;;;;;;30.80;14.88;;;;;;;11.82;100.00;99924.69;5115122;28;20066;-90
2022/10/18 02:40:44;;;;;;;34.40;15.20;;;;;;;11.89;100.00;99936.19;5114592;27;20043;-89
2022/10/18 02:43:09;;;;;;;34.53;14.40;;;;;;;11.90;100.00;99937.94;5113685;28;20031;-92
2022/10/18 02:45:35;;;;;;;32.00;14.45;;;;;;;11.81;100.00;99930.91;5112115;28;20035;-90
2022/10/18 02:48:01;;;;;;;33.20;13.98;;;;;;;11.80;100.00;99934.50;5114470;28;20142;-91
2022/10/18 02:50:28;;;;;;;34.47;14.23;;;;;;;11.87;100.00;99943.28;5109424;28;20563;-90
2022/10/18 02:52:54;;;;;;;33.97;14.23;;;;;;;11.82;100.00;99938.03;5114582;28;20036;-91
2022/10/18 02:55:20;;;;;;;33.08;13.70;;;;;;;11.78;100.00;99927.44;5114796;28;20035;-89
2022/10/18 02:57:45;;;;;;;28.85;13.43;;;;;;;11.81;100.00;99948.69;5114320;28;20039;-90
2022/10/18 03:00:12;;;;;;;29.95;13.40;;;;;;;11.77;100.00;99945.19;5114432;28;20062;-91
2022/10/18 03:02:38;;;;;;;27.30;13.15;;;;;;;11.76;100.00;99954.09;5113405;28;20032;-93
2022/10/18 03:05:04;;;;;;;29.42;13.63;;;;;;;11.71;100.00;99947.94;5111500;28;20054;-93
2022/10/18 03:07:32;;;;;;;31.77;13.93;;;;;;;11.63;100.00;99950.69;5111618;28;20370;-89
2022/10/18 03:09:57;;;;;;;36.42;13.75;;;;;;;11.66;100.00;99947.97;5113747;28;20050;-89
2022/10/18 03:12:23;;;;;;;32.47;13.15;;;;;;;11.64;100.00;99960.44;5113345;28;20044;-92
2022/10/18 03:14:49;;;;;;;29.52;13.60;;;;;;;11.62;100.00;99964.03;5112591;28;20412;-90
2022/10/18 03:17:15;;;;;;;30.98;13.48;;;;;;;11.63;100.00;99965.81;5114540;28;20032;-91
2022/10/18 03:19:40;;;;;;;28.50;12.80;;;;;;;11.52;100.00;99947.28;5114139;28;20397;-92
2022/10/18 03:22:06;;;;;;;34.10;14.23;;;;;;;11.45;100.00;99937.59;5114556;28;20126;-91
2022/10/18 03:24:33;;;;;;;33.40;13.93;;;;;;;11.48;100.00;99953.53;5114129;28;20081;-91
2022/10/18 03:26:59;;;;;;;30.77;13.52;;;;;;;11.38;100.00;99942.09;5114014;28;20048;-91
2022/10/18 03:29:25;;;;;;;28.13;13.40;;;;;;;11.38;100.00;99943.88;5114311;28;20066;-90
2022/10/18 03:31:51;;;;;;;28.88;13.27;;;;;;;11.31;100.00;99949.28;5112889;27;20035;-91
2022/10/18 03:34:17;;;;;;;30.63;13.60;;;;;;;11.36;100.00;99967.00;5113745;28;20042;-93
2022/10/18 03:36:43;;;;;;;31.60;14.23;;;;;;;11.29;100.00;99958.19;5073395;28;20119;-90
2022/10/18 03:39:10;;;;;;;27.13;13.88;;;;;;;11.28;100.00;99962.66;5073772;28;20131;-91
2022/10/18 03:41:37;;;;;;;27.70;13.35;;;;;;;11.15;100.00;99945.03;5071686;28;20390;-91
2022/10/18 03:44:03;;;;;;;29.50;13.15;;;;;;;11.19;100.00;99960.09;5072951;28;20040;-91
2022/10/18 03:46:28;;;;;;;30.80;14.10;;;;;;;11.19;100.00;99956.50;5072789;28;20043;-91
2022/10/18 03:48:54;;;;;;;26.55;13.13;;;;;;;11.10;100.00;99949.50;5072980;28;20047;-90
2022/10/18 03:51:20;;;;;;;30.52;13.00;;;;;;;11.04;100.00;99949.59;5072926;28;20071;-89
2022/10/18 03:53:46;;;;;;;29.90;12.85;;;;;;;11.04;100.00;99958.47;5072299;28;20060;-90
2022/10/18 03:56:11;;;;;;;31.38;12.82;;;;;;;11.08;100.00;99964.59;5072910;28;20045;-93
2022/10/18 03:58:38;;;;;;;29.55;13.23;;;;;;;11.04;100.00;99958.47;5073195;28;20414;-92
2022/10/18 04:01:04;;;;;;;30.95;13.60;;;;;;;10.92;100.00;99944.38;5069686;28;20028;-90
2022/10/18 04:03:30;;;;;;;37.25;15.10;;;;;;;11.03;100.00;99969.09;5073470;28;20198;-92
2022/10/18 04:05:56;;;;;;;34.50;15.05;;;;;;;10.97;100.00;99954.06;5073221;28;20478;-91
2022/10/18 04:08:22;;;;;;;31.38;13.70;;;;;;;10.94;100.00;99955.91;5072957;28;20040;-91
2022/10/18 04:10:48;;;;;;;33.30;13.98;;;;;;;10.99;100.00;99967.38;5072706;28;20036;-92
2022/10/18 04:13:13;;;;;;;32.95;14.52;;;;;;;10.95;100.00;99955.91;5073045;28;20482;-90
2022/10/18 04:15:42;;;;;;;36.22;15.45;;;;;;;10.92;100.00;99953.25;5072294;28;20082;-90
2022/10/18 04:18:08;;;;;;;33.00;15.20;;;;;;;10.87;100.00;99942.66;5069311;28;20493;-91
2022/10/18 04:20:33;;;;;;;34.00;13.93;;;;;;;10.88;100.00;99951.50;5070591;28;20090;-92
2022/10/18 04:22:59;;;;;;;32.58;15.93;;;;;;;10.96;100.00;99964.75;5072369;28;20062;-91
2022/10/18 04:25:25;;;;;;;33.22;14.75;;;;;;;10.87;100.00;99958.63;5073043;28;20136;-92
2022/10/18 04:27:51;;;;;;;36.67;14.43;;;;;;;10.78;100.00;99955.13;5072411;28;20514;-90
2022/10/18 04:30:17;;;;;;;33.63;14.57;;;;;;;10.90;100.00;99977.19;5072489;28;20045;-92
2022/10/18 04:32:44;;;;;;;33.45;13.98;;;;;;;10.85;100.00;99967.50;5070749;28;20048;-91
2022/10/18 04:35:10;;;;;;;30.50;14.00;;;;;;;10.83;100.00;99964.84;5086754;28;20401;-92
2022/10/18 04:37:36;;;;;;;32.83;14.05;;;;;;;10.79;100.00;99960.44;5113012;28;20138;-90
2022/10/18 04:40:02;;;;;;;32.38;14.20;;;;;;;10.77;100.00;99953.38;5112849;28;20563;-92
2022/10/18 04:42:28;;;;;;;31.80;14.43;;;;;;;10.81;100.00;99973.75;5112548;28;20058;-90
2022/10/18 04:44:54;;;;;;;29.88;13.85;;;;;;;10.77;100.00;99962.25;5113131;28;20575;-91
2022/10/18 04:47:19;;;;;;;29.65;14.35;;;;;;;10.68;100.00;99951.69;5109264;28;20130;-92
2022/10/18 04:49:46;;;;;;;30.80;14.23;;;;;;;10.66;100.00;99945.50;5111461;28;20082;-91
2022/10/18 04:52:12;;;;;;;25.65;12.93;;;;;;;10.76;100.00;99968.47;5112746;28;20067;-91
2022/10/18 04:54:38;;;;;;;30.60;14.38;;;;;;;10.65;100.00;99954.38;5111877;28;20066;-91
2022/10/18 04:57:04;;;;;;;27.27;13.43;;;;;;;10.74;100.00;99964.94;5114142;28;20032;-92
2022/10/18 04:59:30;;;;;;;31.27;14.63;;;;;;;10.65;100.00;99949.94;5116792;28;20051;-90
2022/10/18 05:01:55;;;;;;;33.75;14.93;;;;;;;10.58;100.00;99936.69;5117013;28;20488;-92
2022/10/18 05:04:21;;;;;;;32.67;14.55;;;;;;;10.65;100.00;99951.72;5116122;28;20043;-89
2022/10/18 05:06:48;;;;;;;35.55;14.52;;;;;;;10.63;100.00;99953.53;5114544;28;20085;-91
2022/10/18 05:09:15;;;;;;;33.38;14.70;;;;;;;10.59;100.00;99942.00;5117116;28;20063;-91
2022/10/18 05:11:40;;;;;;;32.72;14.65;;;;;;;10.71;100.00;99958.75;5117545;27;20040;-92
2022/10/18 05:14:08;;;;;;;29.20;13.77;;;;;;;10.66;100.00;99943.72;5116195;28;20084;-92
2022/10/18 05:16:34;;;;;;;26.15;12.75;;;;;;;10.69;100.00;99948.13;5116615;28;20508;-91
2022/10/18 05:19:00;;;;;;;26.88;12.57;;;;;;;10.76;100.00;99956.97;5117760;27;20063;-91
2022/10/18 05:21:26;;;;;;;26.95;12.48;;;;;;;10.75;100.00;99958.72;5116846;28;20039;-91
2022/10/18 05:23:55;;;;;;;29.02;12.20;;;;;;;10.65;100.00;99949.94;5117384;27;20059;-91
2022/10/18 05:26:21;;;;;;;34.13;11.95;;;;;;;10.68;100.00;99943.72;5116816;28;20054;-92
2022/10/18 05:28:48;;;;;;;39.47;13.48;;;;;;;10.69;100.00;99940.13;5117625;28;20512;-93
2022/10/18 05:31:14;;;;;;;23.65;11.45;;;;;;;10.80;100.00;99948.94;5116627;28;20051;-92
2022/10/18 05:33:39;;;;;;;25.48;12.68;;;;;;;10.77;100.00;99942.75;5116873;28;20039;-94
2022/10/18 05:36:06;;;;;;;35.72;15.25;;;;;;;10.85;100.00;99948.88;5116602;28;20100;-91
2022/10/18 05:38:32;;;;;;;26.73;13.38;;;;;;;10.83;100.00;99940.91;5116617;28;20050;-90
2022/10/18 05:41:02;;;;;;;32.33;13.80;;;;;;;10.88;100.00;99947.06;5116366;28;20039;-94
2022/10/18 05:43:28;;;;;;;30.08;14.20;;;;;;;10.77;100.00;99948.94;5117063;28;20370;-93
2022/10/18 05:45:55;;;;;;;33.60;14.52;;;;;;;10.80;100.00;99954.25;5116851;28;20515;-93
2022/10/18 05:48:20;;;;;;;31.45;13.00;;;;;;;10.97;100.00;99953.19;5117880;28;20044;-93
2022/10/18 05:50:46;;;;;;;29.13;12.85;;;;;;;11.06;100.00;99942.44;5116720;28;20054;-93
2022/10/18 05:53:12;;;;;;;28.70;12.90;;;;;;;10.98;100.00;99939.88;5116833;28;20093;-95
2022/10/18 05:55:38;;;;;;;26.10;12.60;;;;;;;11.01;100.00;99954.94;5117050;28;20035;-95
2022/10/18 05:58:05;;;;;;;25.77;11.90;;;;;;;10.83;100.00;99919.63;5119002;28;20096;-94
2022/10/18 06:00:31;;;;;;;21.23;10.98;;;;;;;10.86;100.00;99916.03;5120462;28;20051;-95
2022/10/18 06:02:57;;;;;;;22.98;11.52;;;;;;;10.89;100.00;99921.34;5122539;28;20040;-95
2022/10/18 06:05:22;;;;;;;25.58;11.85;;;;;;;11.01;100.00;99945.16;5119112;28;20032;-94
2022/10/18 06:07:48;;;;;;;27.48;13.45;;;;;;;11.10;100.00;99952.16;5119446;28;20043;-94
2022/10/18 06:10:14;;;;;;;34.85;15.05;;;;;;;11.16;100.00;99945.91;5120900;28;20046;-93
2022/10/18 06:12:40;;;;;;;36.00;15.95;;;;;;;11.23;100.00;99942.28;5120274;28;20054;-93
2022/10/18 06:15:08;;;;;;;39.88;15.52;;;;;;;11.41;100.00;99955.41;5117409;28;20046;-92
2022/10/18 06:17:34;;;;;;;39.72;16.75;;;;;;;11.40;100.00;99936.75;5116978;28;20431;-93
2022/10/18 06:19:59;;;;;;;56.45;16.48;;;;;;;11.49;100.00;99942.88;5115998;28;20096;-95
2022/10/18 06:22:25;;;;;;;34.33;16.30;;;;;;;11.52;100.00;99941.97;5116311;28;20051;-94
2022/10/18 06:24:51;;;;;;;38.28;15.70;;;;;;;11.62;100.00;99953.38;5116339;28;20043;-93
2022/10/18 06:27:17;;;;;;;40.03;16.73;;;;;;;11.64;100.00;99949.78;5116389;28;20036;-94
2022/10/18 06:29:42;;;;;;;39.63;16.77;;;;;;;11.72;100.00;99949.69;5117565;28;20055;-92
2022/10/18 06:32:10;;;;;;;32.72;15.63;;;;;;;11.68;100.00;99940.84;5116210;28;20364;-95
2022/10/18 06:34:35;;;;;;;37.75;15.73;;;;;;;11.85;100.00;99951.28;5115284;28;20062;-94
2022/10/18 06:37:01;;;;;;;37.30;15.27;;;;;;;11.98;100.00;99961.84;5115910;28;20031;-92
2022/10/18 06:39:27;;;;;;;42.25;16.83;;;;;;;11.94;100.00;99947.66;5120102;28;20074;-93
2022/10/18 06:41:53;;;;;;;37.20;15.48;;;;;;;12.09;100.00;99952.78;5121516;28;20054;-93
2022/10/18 06:44:19;;;;;;;30.58;14.48;;;;;;;12.17;100.00;99959.81;5120799;28;20065;-93
2022/10/18 06:46:46;;;;;;;30.45;14.80;;;;;;;12.20;100.00;99949.06;5119343;28;20126;-92
2022/10/18 06:49:14;;;;;;;25.30;12.15;;;;;;;12.31;100.00;99949.78;5118771;28;20718;-95
2022/10/18 06:51:41;;;;;;;27.03;13.53;;;;;;;12.52;100.00;99978.81;5116534;28;20039;-94
2022/10/18 06:54:07;;;;;;;37.15;12.02;;;;;;;12.52;100.00;99978.81;5119739;28;20283;-92
2022/10/18 06:56:33;;;;;;;69.90;12.65;;;;;;;12.48;100.00;99971.75;5120863;27;20070;-93
2022/10/18 06:59:00;;;;;;;73.82;13.35;;;;;;;12.18;100.00;99973.09;5120610;28;20114;-92
2022/10/18 07:01:27;;;;;;;68.22;14.55;;;;;;;12.12;100.00;99962.50;5121096;28;20056;-93
2022/10/18 07:03:54;;;;;;;65.95;14.23;;;;;;;12.05;100.00;99951.03;5120575;28;20044;-94
2022/10/18 07:06:22;;;;;;;35.70;12.30;;;;;;;12.20;100.00;99962.41;5121710;28;20497;-90
2022/10/18 07:08:49;;;;;;;33.00;14.30;;;;;;;12.47;100.00;99966.44;5119174;28;20050;-92
2022/10/18 07:11:17;;;;;;;35.60;15.77;;;;;;;12.37;100.00;99964.84;5119584;28;20442;-90
2022/10/18 07:13:43;;;;;;;36.88;16.48;;;;;;;12.50;100.00;99964.59;5118679;28;20512;-92
2022/10/18 07:16:10;;;;;;;44.05;16.80;;;;;;;12.54;100.00;99968.13;5119173;28;20043;-93
2022/10/18 07:18:38;;;;;;;34.80;16.17;;;;;;;12.66;100.00;99975.03;5117725;27;20504;-93
2022/10/18 07:21:06;;;;;;;39.95;16.48;;;;;;;12.80;100.00;99965.03;5118507;28;20040;-91
2022/10/18 07:23:34;;;;;;;35.35;16.50;;;;;;;12.80;100.00;99975.69;5120082;28;20784;-93
2022/10/18 07:26:01;;;;;;;32.77;15.17;;;;;;;12.89;100.00;99983.53;5117384;28;20032;-90
2022/10/18 07:28:27;;;;;;;35.97;15.52;;;;;;;13.07;100.00;99978.78;5118299;28;20043;-91
2022/10/18 07:30:53;;;;;;;33.13;14.45;;;;;;;13.17;100.00;99963.50;5118668;28;20055;-92
2022/10/18 07:33:20;;;;;;;31.60;14.82;;;;;;;13.32;100.00;99977.47;5116534;28;20481;-92
2022/10/18 07:35:46;;;;;;;30.42;15.30;;;;;;;13.51;100.00;99985.09;5117597;28;20051;-94
2022/10/18 07:38:12;;;;;;;30.95;14.77;;;;;;;13.31;100.00;99974.81;5117786;28;20538;-92
2022/10/18 07:40:39;;;;;;;28.23;13.70;;;;;;;13.37;100.00;99973.81;5119148;28;20035;-93
2022/10/18 07:43:05;;;;;;;30.00;14.82;;;;;;;13.45;100.00;99975.44;5119281;28;20088;-91
2022/10/18 07:45:31;;;;;;;28.05;13.23;;;;;;;13.43;100.00;99950.53;5118242;28;20054;-91
2022/10/18 07:47:57;;;;;;;29.83;14.27;;;;;;;13.54;100.00;99963.69;5117718;28;20040;-93
2022/10/18 07:50:23;;;;;;;29.98;14.50;;;;;;;13.75;100.00;99981.97;5118653;28;20043;-91
2022/10/18 07:52:49;;;;;;;28.88;13.70;;;;;;;13.88;100.00;99966.56;5118745;28;20036;-93
2022/10/18 07:55:15;;;;;;;24.35;13.15;;;;;;;14.01;100.00;99964.50;5117595;28;20134;-91
2022/10/18 07:57:42;;;;;;;28.73;14.50;;;;;;;14.32;100.00;99982.53;5114147;28;20039;-92
2022/10/18 08:00:10;;;;;;;29.00;15.43;;;;;;;14.28;100.00;99962.09;5116948;28;20043;-95
2022/10/18 08:02:36;;;;;;;24.60;13.90;;;;;;;14.36;100.00;99969.03;5116689;27;20059;-92
2022/10/18 08:05:01;;;;;;;26.80;13.98;;;;;;;14.37;100.00;99968.09;5117085;28;20051;-94
2022/10/18 08:07:27;;;;;;;27.23;15.50;;;;;;;14.24;100.00;99968.44;5115777;28;20052;-93
2022/10/18 08:09:53;;;;;;;29.30;13.98;;;;;;;14.40;100.00;99988.59;5115659;28;20028;-92
2022/10/18 08:12:19;;;;;;;28.98;14.68;;;;;;;14.55;100.00;99969.50;5116652;28;20039;-94
2022/10/18 08:14:46;;;;;;;30.23;14.65;;;;;;;14.78;100.00;99962.69;5117566;28;20043;-93
2022/10/18 08:17:12;;;;;;;29.92;14.65;;;;;;;14.95;100.00;99968.50;5116350;28;20103;-94
2022/10/18 08:19:38;;;;;;;27.23;14.15;;;;;;;15.15;100.00;99967.09;5118758;28;20475;-93
2022/10/18 08:22:03;;;;;;;24.45;13.75;;;;;;;15.44;100.00;99977.06;5118199;28;20472;-91
2022/10/18 08:24:30;;;;;;;28.13;14.40;;;;;;;15.50;98.80;99944.69;5118134;28;20051;-91
2022/10/18 08:26:55;;;;;;;27.02;14.95;;;;;;;15.70;97.35;99956.66;5117016;28;20078;-93
2022/10/18 08:29:21;;;;;;;23.95;13.98;;;;;;;15.89;95.95;99957.03;5118665;28;20040;-92
2022/10/18 08:31:49;;;;;;;29.13;14.82;;;;;;;16.09;94.43;99975.19;5117239;28;20039;-92
2022/10/18 08:34:15;;;;;;;30.05;15.20;;;;;;;16.07;91.04;99959.16;5117510;28;20044;-91
2022/10/18 08:36:41;;;;;;;31.00;15.52;;;;;;;16.13;93.49;99952.72;5115592;28;20052;-93
2022/10/18 08:39:07;;;;;;;31.38;16.65;;;;;;;16.29;92.61;99962.06;5116123;28;20067;-92
2022/10/18 08:41:46;;;;;;;29.13;15.25;;;;;;;16.40;92.11;99962.59;5117668;28;20385;-93
2022/10/18 08:44:17;;;;;;;27.55;14.57;;;;;;;16.36;90.56;99952.00;5117639;28;20047;-94
2022/10/18 08:46:45;;;;;;;29.60;15.43;;;;;;;16.21;92.25;99954.22;5116070;28;20038;-93
2022/10/18 08:49:22;;;;;;;29.70;14.95;;;;;;;16.32;92.56;99948.53;5116060;28;20032;-91
2022/10/18 08:51:50;;;;;;;25.23;14.10;;;;;;;16.41;91.18;99931.25;5113670;28;20473;-92
2022/10/18 08:54:24;;;;;;;24.63;14.00;;;;;;;16.62;89.01;99952.03;5117636;28;20119;-92
2022/10/18 08:56:58;;;;;;;27.00;15.95;;;;;;;16.38;91.03;99956.38;5114848;28;20074;-93
2022/10/18 08:59:24;;;;;;;29.35;15.52;;;;;;;16.53;90.70;99946.09;5113793;28;20524;-94
2022/10/18 09:01:59;;;;;;;31.17;17.08;;;;;;;16.46;89.67;99932.00;5116106;28;20048;-93
2022/10/18 09:04:39;;;;;;;30.65;16.60;;;;;;;16.75;90.17;99955.19;5115566;28;20471;-95
2022/10/18 09:07:21;;;;;;;29.27;14.35;;;;;;;16.89;89.14;99935.94;5112734;28;20061;-94
2022/10/18 09:09:55;;;;;;;26.85;14.38;;;;;;;17.07;88.01;99933.53;5108252;28;20039;-95
2022/10/18 09:12:36;;;;;;;26.95;13.80;;;;;;;17.23;86.08;99926.72;5114200;28;20032;-94
2022/10/18 09:15:15;;;;;;;25.33;13.60;;;;;;;17.48;83.95;99942.84;5111740;28;20068;-96
2022/10/18 09:17:55;;;;;;;24.02;13.85;;;;;;;17.49;84.08;99927.56;5114416;28;20047;-94
2022/10/18 09:20:24;;;;;;;27.35;13.98;;;;;;;17.69;84.14;99933.06;5114281;28;20501;-95
2022/10/18 09:22:53;;;;;;;26.20;14.18;;;;;;;17.66;83.06;99900.91;5114910;28;20115;-94
2022/10/18 09:25:21;;;;;;;27.83;14.57;;;;;;;17.90;82.39;99925.16;5112557;28;20035;-91
2022/10/18 09:27:52;;;;;;;27.98;13.50;;;;;;;17.80;82.66;99913.84;5111841;28;20054;-93
2022/10/18 09:30:29;;;;;;;29.90;13.13;;;;;;;17.81;83.00;99921.84;5111549;28;20131;-93
2022/10/18 09:33:05;;;;;;;26.17;13.15;;;;;;;17.86;81.50;99914.50;5112953;28;20058;-93
2022/10/18 09:35:41;;;;;;;23.75;13.25;;;;;;;18.00;81.35;99916.69;5110894;28;20097;-93
2022/10/18 09:38:12;;;;;;;24.63;13.18;;;;;;;18.15;80.78;99923.28;5113521;28;20093;-95
2022/10/18 09:40:47;;;;;;;23.98;13.10;;;;;;;18.21;80.54;99920.31;5113099;28;20040;-93
2022/10/18 09:43:17;;;;;;;22.02;13.13;;;;;;;18.19;80.01;99911.41;5111344;28;20048;-94
2022/10/18 09:45:46;;;;;;;24.60;13.50;;;;;;;18.27;80.54;99919.19;5114235;28;20044;-94
2022/10/18 09:48:14;;;;;;;;;;;;;;;18.42;79.36;99923.97;5116881;28;20035;-93
2022/10/18 09:50:44;;;;;;;23.67;12.45;;;;;;;18.51;78.94;99917.31;5116750;28;19958;-93
2022/10/18 09:53:17;;;;;;;24.52;13.77;;;;;;;18.61;78.48;99915.13;5115711;28;20039;-92
2022/10/18 09:55:55;;;;;;;22.27;12.68;;;;;;;18.68;77.81;99913.94;5115777;27;20051;-92
2022/10/18 09:58:23;;;;;;;26.55;12.80;;;;;;;18.72;75.91;99910.16;5113027;28;20043;-92
2022/10/18 10:00:51;;;;;;;22.58;12.50;;;;;;;18.73;76.98;99908.34;5114439;28;20046;-92
2022/10/18 10:03:17;;;;;;;21.35;12.00;;;;;;;18.76;76.04;99887.53;5115553;27;20130;-94
2022/10/18 10:05:44;;;;;;;21.85;12.10;;;;;;;18.67;77.05;99902.28;5115483;28;20153;-92
2022/10/18 10:08:11;;;;;;;23.83;11.73;;;;;;;18.79;77.09;99905.44;5114447;28;20051;-93
2022/10/18 10:10:39;;;;;;;20.48;11.68;;;;;;;18.97;75.38;99896.53;5115508;28;20040;-94
2022/10/18 10:13:12;;;;;;;20.25;11.93;;;;;;;18.98;73.03;99890.22;5116919;28;20537;-96
2022/10/18 10:15:38;;;;;;;20.70;11.13;;;;;;;19.05;72.27;99886.28;5116003;28;20036;-95
2022/10/18 10:18:16;;;;;;;19.77;9.68;;;;;;;19.05;70.78;99877.34;5119177;28;20149;-93
2022/10/18 10:20:44;;;;;;;;;;;;;;;19.22;70.33;99898.16;5114236;28;20396;-93
2022/10/18 10:23:19;;;;;;;18.80;10.40;;;;;;;19.22;70.33;99890.06;5115827;28;20258;-94
2022/10/18 10:25:50;;;;;;;22.17;10.88;;;;;;;19.16;71.17;99874.16;5119993;28;20089;-92
2022/10/18 10:28:20;;;;;;;15.77;9.55;;;;;;;19.22;70.89;99868.50;5118172;28;20043;-94
2022/10/18 10:30:46;;;;;;;20.02;10.70;;;;;;;19.18;71.03;99851.56;5116287;28;20042;-94
2022/10/18 10:33:32;;;;;;;19.95;10.27;;;;;;;19.16;71.32;99855.28;5119076;28;20051;-93
2022/10/18 10:36:01;;;;;;;21.90;10.80;;;;;;;19.26;71.53;99867.41;5117370;28;20046;-94
2022/10/18 10:38:28;;;;;;;20.60;11.63;;;;;;;19.23;71.19;99863.00;5116404;28;20027;-94
2022/10/18 10:40:55;;;;;;;20.20;11.00;;;;;;;19.24;71.97;99853.13;5116102;28;20038;-94
2022/10/18 10:43:25;;;;;;;16.63;10.38;;;;;;;19.20;68.74;99841.59;5117787;28;20435;-95
2022/10/18 10:46:00;;;;;;;19.67;10.40;;;;;;;19.22;69.20;99841.53;5116628;28;20114;-93
2022/10/18 10:48:30;;;;;;;20.38;9.88;;;;;;;19.19;69.89;99834.47;5115159;28;20028;-92
2022/10/18 10:51:02;;;;;;;18.15;10.23;;;;;;;19.23;68.33;99829.78;5118912;28;20110;-93
2022/10/18 10:53:32;;;;;;;15.30;9.30;;;;;;;19.29;68.84;99834.91;5116274;28;20389;-95
2022/10/18 10:55:59;;;;;;;17.25;10.00;;;;;;;19.24;70.39;99821.63;5120417;28;20043;-95
2022/10/18 10:58:27;;;;;;;15.45;9.73;;;;;;;19.24;69.61;99812.69;5116785;28;20531;-91
2022/10/18 11:00:56;;;;;;;18.20;9.40;;;;;;;19.38;68.91;99814.72;5117683;27;20047;-91
2022/10/18 11:03:22;;;;;;;19.40;10.35;;;;;;;19.45;68.00;99805.38;5119120;28;20043;-91
2022/10/18 11:05:51;;;;;;;17.10;10.70;;;;;;;19.39;68.19;99797.63;5120574;28;20040;-93
2022/10/18 11:08:22;;;;;;;16.80;9.82;;;;;;;19.44;69.29;99800.97;5119192;28;20092;-92
2022/10/18 11:11:04;;;;;;;15.35;9.40;;;;;;;19.46;69.03;99802.63;5121650;28;20038;-93
2022/10/18 11:13:46;;;;;;;18.75;9.23;;;;;;;19.43;68.50;99783.00;5116901;28;20039;-94
2022/10/18 11:16:16;;;;;;;17.40;9.30;;;;;;;19.52;69.54;99787.09;5120042;28;20039;-93
2022/10/18 11:18:45;;;;;;;17.10;9.27;;;;;;;19.55;68.07;99776.16;5118491;28;20044;-93